createdAt,value
2018-06-09T00:02:03.843Z,19.54
2018-06-09T00:05:07.440Z,19.50
2018-06-09T00:08:11.118Z,19.46
2018-06-09T00:11:14.710Z,19.47
2018-06-09T00:14:18.284Z,19.43
2018-06-09T00:17:21.868Z,19.39
2018-06-09T00:20:25.480Z,19.33
2018-06-09T00:23:29.077Z,19.28
2018-06-09T00:26:32.814Z,19.27
2018-06-09T00:29:36.384Z,19.24
2018-06-09T00:32:39.975Z,19.21
2018-06-09T00:35:43.606Z,19.18
2018-06-09T00:38:47.200Z,19.16
2018-06-09T00:41:50.815Z,19.16
2018-06-09T00:44:54.376Z,19.13
2018-06-09T00:47:58.055Z,19.10
2018-06-09T00:51:01.603Z,19.10
2018-06-09T00:54:05.226Z,19.06
2018-06-09T00:57:08.788Z,19.00
2018-06-09T01:00:12.314Z,19.04
2018-06-09T01:03:15.932Z,19.11
2018-06-09T01:06:19.491Z,19.01
2018-06-09T01:09:23.106Z,19.01
2018-06-09T01:12:26.815Z,19.02
2018-06-09T01:15:30.437Z,18.97
2018-06-09T01:18:34.018Z,18.98
2018-06-09T01:21:37.705Z,19.01
2018-06-09T01:24:41.504Z,18.95
2018-06-09T01:27:45.141Z,18.92
2018-06-09T01:30:48.773Z,18.92
2018-06-09T01:33:52.365Z,18.92
2018-06-09T01:36:55.936Z,18.96
2018-06-09T01:39:59.511Z,18.95
2018-06-09T01:43:03.137Z,18.87
2018-06-09T01:46:06.683Z,18.86
2018-06-09T01:49:10.394Z,18.79
2018-06-09T01:52:14.072Z,18.79
2018-06-09T01:55:17.672Z,18.74
2018-06-09T01:58:21.199Z,18.78
2018-06-09T02:01:24.849Z,18.68
2018-06-09T02:04:28.412Z,18.73
2018-06-09T02:07:32.117Z,18.64
2018-06-09T02:10:35.750Z,18.64
2018-06-09T02:13:39.459Z,18.62
2018-06-09T02:16:43.128Z,18.59
2018-06-09T02:19:46.684Z,18.54
2018-06-09T02:22:50.285Z,18.53
2018-06-09T02:25:53.938Z,18.43
2018-06-09T02:28:57.496Z,18.30
2018-06-09T02:32:01.048Z,18.26
2018-06-09T02:35:04.842Z,18.23
2018-06-09T02:38:08.387Z,18.11
2018-06-09T02:41:12.083Z,18.06
2018-06-09T02:44:15.770Z,17.98
2018-06-09T02:47:19.443Z,17.93
2018-06-09T02:50:23.030Z,17.96
2018-06-09T02:53:26.705Z,17.94
2018-06-09T02:56:30.364Z,17.93
2018-06-09T02:59:34.195Z,17.92
2018-06-09T03:02:37.936Z,17.94
2018-06-09T03:05:41.619Z,17.95
2018-06-09T03:08:45.150Z,17.92
2018-06-09T03:11:49.634Z,17.95
2018-06-09T03:14:53.220Z,17.97
2018-06-09T03:17:56.815Z,17.93
2018-06-09T03:21:00.590Z,17.94
2018-06-09T03:24:04.249Z,18.00
2018-06-09T03:27:07.897Z,18.08
2018-06-09T03:30:11.533Z,18.13
2018-06-09T03:33:15.162Z,18.19
2018-06-09T03:36:18.752Z,18.11
2018-06-09T03:39:22.348Z,18.08
2018-06-09T03:42:25.927Z,18.08
2018-06-09T03:45:29.676Z,18.13
2018-06-09T03:48:33.385Z,18.08
2018-06-09T03:51:36.912Z,18.04
2018-06-09T03:54:40.529Z,18.07
2018-06-09T03:57:44.290Z,18.11
2018-06-09T04:00:47.874Z,18.08
2018-06-09T04:03:51.490Z,18.12
2018-06-09T04:06:55.017Z,18.13
2018-06-09T04:09:58.604Z,18.21
2018-06-09T04:13:02.174Z,18.29
2018-06-09T04:16:05.725Z,18.35
2018-06-09T04:19:09.303Z,18.37
2018-06-09T04:22:12.909Z,18.36
2018-06-09T04:25:16.661Z,18.35
2018-06-09T04:28:20.335Z,18.25
2018-06-09T04:31:23.935Z,18.34
2018-06-09T04:34:27.560Z,18.39
2018-06-09T04:37:32.033Z,18.37
2018-06-09T04:40:35.622Z,18.40
2018-06-09T04:43:39.191Z,18.47
2018-06-09T04:46:42.824Z,18.49
2018-06-09T04:49:46.412Z,18.51
2018-06-09T04:52:50.004Z,18.51
2018-06-09T04:55:53.552Z,18.53
2018-06-09T04:58:57.131Z,18.44
2018-06-09T05:02:00.771Z,18.53
2018-06-09T05:05:04.346Z,18.56
2018-06-09T05:08:10.805Z,18.63
2018-06-09T05:11:14.572Z,18.59
2018-06-09T05:14:18.167Z,18.68
2018-06-09T05:17:21.933Z,18.74
2018-06-09T05:20:25.701Z,18.99
2018-06-09T05:23:29.407Z,18.94
2018-06-09T05:26:33.051Z,19.07
2018-06-09T05:29:36.656Z,19.02
2018-06-09T05:32:40.228Z,18.96
2018-06-09T05:35:43.827Z,19.03
2018-06-09T05:38:47.418Z,19.07
2018-06-09T05:41:51.061Z,19.31
2018-06-09T05:44:54.703Z,19.23
2018-06-09T05:47:58.347Z,19.52
2018-06-09T05:51:01.973Z,19.74
2018-06-09T05:54:05.599Z,19.71
2018-06-09T05:57:09.197Z,19.57
2018-06-09T06:00:12.894Z,19.59
2018-06-09T06:03:16.488Z,19.61
2018-06-09T06:06:20.185Z,19.72
2018-06-09T06:09:23.789Z,20.13
2018-06-09T06:12:27.402Z,20.53
2018-06-09T06:15:30.978Z,20.70
2018-06-09T06:18:34.682Z,21.16
2018-06-09T06:21:38.328Z,21.25
2018-06-09T06:24:42.062Z,21.54
2018-06-09T06:27:45.658Z,22.17
2018-06-09T06:30:49.303Z,22.29
2018-06-09T06:33:52.887Z,23.00
2018-06-09T06:36:57.316Z,24.19
2018-06-09T06:40:00.927Z,25.19
2018-06-09T06:43:04.538Z,25.79
2018-06-09T06:46:08.154Z,26.49
2018-06-09T06:49:11.742Z,26.83
2018-06-09T06:52:15.410Z,26.57
2018-06-09T06:55:19.062Z,25.64
2018-06-09T06:58:22.729Z,26.08
2018-06-09T07:01:26.316Z,25.58
2018-06-09T07:04:29.887Z,24.31
2018-06-09T07:07:33.648Z,24.16
2018-06-09T07:10:37.265Z,24.48
2018-06-09T07:13:40.929Z,24.56
2018-06-09T07:16:44.964Z,24.85
2018-06-09T07:19:48.629Z,23.73
2018-06-09T07:22:52.365Z,22.76
2018-06-09T07:25:56.124Z,22.49
2018-06-09T07:28:59.770Z,22.56
2018-06-09T07:32:03.520Z,22.70
2018-06-09T07:35:07.207Z,22.76
2018-06-09T07:38:10.817Z,22.65
2018-06-09T07:41:14.539Z,22.81
2018-06-09T07:44:18.223Z,22.79
2018-06-09T07:47:21.837Z,22.68
2018-06-09T07:50:25.501Z,22.84
2018-06-09T07:53:29.163Z,23.02
2018-06-09T07:56:32.868Z,23.13
2018-06-09T07:59:36.594Z,23.16
2018-06-09T08:02:40.280Z,22.93
2018-06-09T08:05:43.931Z,23.09
2018-06-09T08:08:47.519Z,23.27
2018-06-09T08:11:51.274Z,23.52
2018-06-09T08:14:54.973Z,23.53
2018-06-09T08:17:58.678Z,23.51
2018-06-09T08:21:02.258Z,23.28
2018-06-09T08:24:06.064Z,24.11
2018-06-09T08:27:09.768Z,24.39
2018-06-09T08:30:13.406Z,23.94
2018-06-09T08:33:17.060Z,23.94
2018-06-09T08:36:20.705Z,24.17
2018-06-09T08:39:24.399Z,23.72
2018-06-09T08:42:28.078Z,24.10
2018-06-09T08:45:31.674Z,24.69
2018-06-09T08:48:35.519Z,24.75
2018-06-09T08:51:39.299Z,24.41
2018-06-09T08:54:42.898Z,24.64
2018-06-09T08:57:46.549Z,24.57
2018-06-09T09:00:50.168Z,25.17
2018-06-09T09:03:53.738Z,25.40
2018-06-09T09:06:57.295Z,25.89
2018-06-09T09:10:00.924Z,25.69
2018-06-09T09:13:04.598Z,25.42
2018-06-09T09:16:08.300Z,25.36
2018-06-09T09:19:11.995Z,25.36
2018-06-09T09:22:15.679Z,25.34
2018-06-09T09:25:19.475Z,25.53
2018-06-09T09:28:23.117Z,25.57
2018-06-09T09:31:26.737Z,25.39
2018-06-09T09:34:30.464Z,25.43
2018-06-09T09:37:34.090Z,25.67
2018-06-09T09:40:37.794Z,25.90
2018-06-09T09:43:41.444Z,25.82
2018-06-09T09:46:45.194Z,25.49
2018-06-09T09:49:48.840Z,25.88
2018-06-09T09:52:52.570Z,26.23
2018-06-09T09:55:56.151Z,26.46
2018-06-09T09:58:59.719Z,26.40
2018-06-09T10:02:03.263Z,26.45
2018-06-09T10:05:06.974Z,26.58
2018-06-09T10:08:10.556Z,26.56
2018-06-09T10:11:14.241Z,27.05
2018-06-09T10:14:17.881Z,26.91
2018-06-09T10:17:21.571Z,27.20
2018-06-09T10:20:25.144Z,27.44
2018-06-09T10:23:28.858Z,27.31
2018-06-09T10:26:32.521Z,26.96
2018-06-09T10:29:36.215Z,27.01
2018-06-09T10:32:39.869Z,27.02
2018-06-09T10:35:43.555Z,26.96
2018-06-09T10:38:47.275Z,26.83
2018-06-09T10:41:50.972Z,26.87
2018-06-09T10:44:54.555Z,26.90
2018-06-09T10:47:58.249Z,27.42
2018-06-09T10:51:08.383Z,27.69
2018-06-09T10:54:12.067Z,27.96
2018-06-09T10:57:15.691Z,27.88
2018-06-09T11:00:19.340Z,28.26
2018-06-09T11:03:23.027Z,28.58
2018-06-09T11:06:26.625Z,28.58
2018-06-09T11:09:30.259Z,28.42
2018-06-09T11:12:33.840Z,28.03
2018-06-09T11:15:37.470Z,28.08
2018-06-09T11:18:41.175Z,28.09
2018-06-09T11:21:44.914Z,28.08
2018-06-09T11:24:48.608Z,27.69
2018-06-09T11:27:52.287Z,27.85
2018-06-09T11:30:56.264Z,28.23
2018-06-09T11:33:59.966Z,28.16
2018-06-09T11:37:03.606Z,28.23
2018-06-09T11:40:07.191Z,28.35
2018-06-09T11:43:10.829Z,28.37
2018-06-09T11:46:14.452Z,28.80
2018-06-09T11:49:18.117Z,28.76
2018-06-09T11:52:21.715Z,28.62
2018-06-09T11:55:25.307Z,28.72
2018-06-09T11:58:28.945Z,28.91
2018-06-09T12:01:32.517Z,28.74
2018-06-09T12:04:36.191Z,28.77
2018-06-09T12:07:39.832Z,28.60
2018-06-09T12:10:43.495Z,28.48
2018-06-09T12:13:47.082Z,28.74
2018-06-09T12:16:50.700Z,28.93
2018-06-09T12:19:54.227Z,28.91
2018-06-09T12:22:57.919Z,28.91
2018-06-09T12:26:01.796Z,29.13
2018-06-09T12:29:05.492Z,29.16
2018-06-09T12:32:09.136Z,29.15
2018-06-09T12:35:12.874Z,29.30
2018-06-09T12:38:16.655Z,29.36
2018-06-09T12:41:20.370Z,29.38
2018-06-09T12:44:23.956Z,29.37
2018-06-09T12:47:27.607Z,29.32
2018-06-09T12:50:31.234Z,28.90
2018-06-09T12:53:34.811Z,29.18
2018-06-09T12:56:38.483Z,29.42
2018-06-09T12:59:42.101Z,29.34
2018-06-09T13:02:45.721Z,29.46
2018-06-09T13:05:49.385Z,29.56
2018-06-09T13:08:53.015Z,29.66
2018-06-09T13:11:56.532Z,29.53
2018-06-09T13:15:00.236Z,29.36
2018-06-09T13:18:04.336Z,29.42
2018-06-09T13:21:07.902Z,29.70
2018-06-09T13:24:11.652Z,29.68
2018-06-09T13:27:15.221Z,29.52
2018-06-09T13:30:18.997Z,29.44
2018-06-09T13:33:22.593Z,29.51
2018-06-09T13:36:26.177Z,29.74
2018-06-09T13:39:29.876Z,29.88
2018-06-09T13:42:33.692Z,30.11
2018-06-09T13:45:37.396Z,29.79
2018-06-09T13:48:40.967Z,29.91
2018-06-09T13:51:44.626Z,30.05
2018-06-09T13:54:48.260Z,30.22
2018-06-09T13:57:51.831Z,30.54
2018-06-09T14:00:55.375Z,30.52
2018-06-09T14:03:59.002Z,30.54
2018-06-09T14:07:02.759Z,30.72
2018-06-09T14:10:06.406Z,30.76
2018-06-09T14:13:10.054Z,30.76
2018-06-09T14:16:14.559Z,30.48
2018-06-09T14:19:18.186Z,30.41
2018-06-09T14:22:21.764Z,29.98
2018-06-09T14:25:25.498Z,29.87
2018-06-09T14:28:29.156Z,30.17
2018-06-09T14:31:32.819Z,30.33
2018-06-09T14:34:36.392Z,30.38
2018-06-09T14:37:39.997Z,30.34
2018-06-09T14:40:43.636Z,30.48
2018-06-09T14:43:47.273Z,30.76
2018-06-09T14:46:50.889Z,30.19
2018-06-09T14:49:54.525Z,30.22
2018-06-09T14:52:58.103Z,30.51
2018-06-09T14:56:01.723Z,30.69
2018-06-09T14:59:05.384Z,30.48
2018-06-09T15:02:08.937Z,30.71
2018-06-09T15:05:12.535Z,30.40
2018-06-09T15:08:16.144Z,30.30
2018-06-09T15:11:19.766Z,30.48
2018-06-09T15:14:23.498Z,30.63
2018-06-09T15:17:27.123Z,30.51
2018-06-09T15:20:30.798Z,30.71
2018-06-09T15:23:34.558Z,30.63
2018-06-09T15:26:41.689Z,30.40
2018-06-09T15:29:45.463Z,30.46
2018-06-09T15:32:49.157Z,30.23
2018-06-09T15:35:52.838Z,30.36
2018-06-09T15:38:56.580Z,30.60
2018-06-09T15:42:00.143Z,30.59
2018-06-09T15:45:03.767Z,30.66
2018-06-09T15:48:07.368Z,30.55
2018-06-09T15:51:10.960Z,30.61
2018-06-09T15:54:14.578Z,30.54
2018-06-09T15:57:18.193Z,30.48
2018-06-09T16:00:21.869Z,30.38
2018-06-09T16:03:25.628Z,30.16
2018-06-09T16:06:29.282Z,30.00
2018-06-09T16:09:33.639Z,30.05
2018-06-09T16:12:37.252Z,30.22
2018-06-09T16:15:40.850Z,30.40
2018-06-09T16:18:47.439Z,30.51
2018-06-09T16:21:51.141Z,30.38
2018-06-09T16:24:54.846Z,30.44
2018-06-09T16:27:58.616Z,30.40
2018-06-09T16:31:02.230Z,30.41
2018-06-09T16:34:05.880Z,30.41
2018-06-09T16:37:09.508Z,30.39
2018-06-09T16:40:13.216Z,30.39
2018-06-09T16:43:16.855Z,30.59
2018-06-09T16:46:20.617Z,30.70
2018-06-09T16:49:24.269Z,31.05
2018-06-09T16:52:27.894Z,31.38
2018-06-09T16:55:31.615Z,32.17
2018-06-09T16:58:35.253Z,33.50
2018-06-09T17:01:38.871Z,34.67
2018-06-09T17:04:42.554Z,35.62
2018-06-09T17:07:46.179Z,36.42
2018-06-09T17:10:49.908Z,36.59
2018-06-09T17:13:53.566Z,36.96
2018-06-09T17:16:57.152Z,37.05
2018-06-09T17:20:00.748Z,37.40
2018-06-09T17:23:04.519Z,37.35
2018-06-09T17:26:08.304Z,37.10
2018-06-09T17:29:11.965Z,36.87
2018-06-09T17:32:15.668Z,36.97
2018-06-09T17:35:19.251Z,36.45
2018-06-09T17:38:22.864Z,36.51
2018-06-09T17:41:26.619Z,36.47
2018-06-09T17:44:30.240Z,36.38
2018-06-09T17:47:33.833Z,35.75
2018-06-09T17:50:37.544Z,35.99
2018-06-09T17:53:41.315Z,35.57
2018-06-09T17:56:44.926Z,35.39
2018-06-09T17:59:48.566Z,35.33
2018-06-09T18:02:52.173Z,34.92
2018-06-09T18:05:55.793Z,35.05
2018-06-09T18:08:59.417Z,34.61
2018-06-09T18:12:03.032Z,33.80
2018-06-09T18:15:06.786Z,32.82
2018-06-09T18:18:10.477Z,32.04
2018-06-09T18:21:14.192Z,31.34
2018-06-09T18:24:17.900Z,30.74
2018-06-09T18:27:21.521Z,30.54
2018-06-09T18:30:25.246Z,30.69
2018-06-09T18:33:29.035Z,30.23
2018-06-09T18:36:32.632Z,29.77
2018-06-09T18:39:36.360Z,29.29
2018-06-09T18:42:39.950Z,28.98
2018-06-09T18:45:43.701Z,28.61
2018-06-09T18:48:47.285Z,28.20
2018-06-09T18:51:50.917Z,27.91
2018-06-09T18:54:54.535Z,27.79
2018-06-09T18:57:58.173Z,27.69
2018-06-09T19:01:01.827Z,27.46
2018-06-09T19:04:05.703Z,27.17
2018-06-09T19:07:09.392Z,26.97
2018-06-09T19:10:12.990Z,26.93
2018-06-09T19:13:16.635Z,26.78
2018-06-09T19:16:20.225Z,26.66
2018-06-09T19:19:23.798Z,26.55
2018-06-09T19:22:27.512Z,26.38
2018-06-09T19:25:31.218Z,26.22
2018-06-09T19:28:34.792Z,26.18
2018-06-09T19:31:38.330Z,26.06
2018-06-09T19:34:41.952Z,26.01
2018-06-09T19:37:45.603Z,25.93
2018-06-09T19:40:49.238Z,25.91
2018-06-09T19:43:52.831Z,25.86
2018-06-09T19:46:56.462Z,25.79
2018-06-09T19:50:00.093Z,25.68
2018-06-09T19:53:03.772Z,25.61
2018-06-09T19:56:07.447Z,25.48
2018-06-09T19:59:11.078Z,25.35
2018-06-09T20:02:14.716Z,25.20
2018-06-09T20:05:18.407Z,25.02
2018-06-09T20:08:21.973Z,24.95
2018-06-09T20:11:25.644Z,24.95
2018-06-09T20:14:29.406Z,24.84
2018-06-09T20:17:33.033Z,24.77
2018-06-09T20:20:36.882Z,24.72
2018-06-09T20:23:40.632Z,24.65
2018-06-09T20:26:44.222Z,24.58
2018-06-09T20:29:47.923Z,24.51
2018-06-09T20:32:51.683Z,24.46
2018-06-09T20:35:55.260Z,24.42
2018-06-09T20:38:59.056Z,24.38
2018-06-09T20:42:02.861Z,24.25
2018-06-09T20:45:06.532Z,24.18
2018-06-09T20:48:10.203Z,24.16
2018-06-09T20:51:13.811Z,24.17
2018-06-09T20:54:17.458Z,24.17
2018-06-09T20:57:21.077Z,24.10
2018-06-09T21:00:24.807Z,24.01
2018-06-09T21:03:28.467Z,24.04
2018-06-09T21:06:31.858Z,23.94
2018-06-09T21:09:35.581Z,23.91
2018-06-09T21:12:39.258Z,23.86
2018-06-09T21:15:43.072Z,23.94
2018-06-09T21:18:46.808Z,23.91
2018-06-09T21:21:50.437Z,23.91
2018-06-09T21:24:54.328Z,23.82
2018-06-09T21:28:03.215Z,23.74
2018-06-09T21:31:12.287Z,23.71
2018-06-09T21:34:33.477Z,23.70
2018-06-09T21:37:43.195Z,23.58
2018-06-09T21:40:49.748Z,23.58
2018-06-09T21:43:54.959Z,23.52
2018-06-09T21:46:58.622Z,23.41
2018-06-09T21:50:02.310Z,23.38
2018-06-09T21:53:06.062Z,23.40
2018-06-09T21:56:09.692Z,23.26
2018-06-09T21:59:13.360Z,23.20
2018-06-09T22:02:16.984Z,23.23
2018-06-09T22:05:20.652Z,23.11
2018-06-09T22:08:24.359Z,23.07
2018-06-09T22:11:28.064Z,23.00
2018-06-09T22:14:31.838Z,22.93
2018-06-09T22:17:35.432Z,22.93
2018-06-09T22:20:39.097Z,22.83
2018-06-09T22:23:42.892Z,22.80
2018-06-09T22:26:46.559Z,22.82
2018-06-09T22:29:50.294Z,22.72
2018-06-09T22:32:54.884Z,22.60
2018-06-09T22:35:58.593Z,22.54
2018-06-09T22:39:02.167Z,22.54
2018-06-09T22:42:05.743Z,22.44
2018-06-09T22:45:09.553Z,22.38
2018-06-09T22:48:13.133Z,22.32
2018-06-09T22:51:16.754Z,22.26
2018-06-09T22:54:20.555Z,22.23
2018-06-09T22:57:24.193Z,22.13
2018-06-09T23:00:36.743Z,22.08
2018-06-09T23:03:40.513Z,21.96
2018-06-09T23:06:47.505Z,21.95
2018-06-09T23:09:51.175Z,21.80
2018-06-09T23:12:54.763Z,21.74
2018-06-09T23:15:58.412Z,21.75
2018-06-09T23:19:02.172Z,21.67
2018-06-09T23:22:05.893Z,21.57
2018-06-09T23:25:09.791Z,21.49
2018-06-09T23:28:13.437Z,21.47
2018-06-09T23:31:17.030Z,21.43
2018-06-09T23:34:20.640Z,21.36
2018-06-09T23:37:24.333Z,21.31
2018-06-09T23:40:27.998Z,21.25
2018-06-09T23:43:31.629Z,21.25
2018-06-09T23:46:35.388Z,21.17
2018-06-09T23:49:39.024Z,21.09
2018-06-09T23:52:42.588Z,21.00
2018-06-09T23:55:46.307Z,20.96
2018-06-09T23:58:49.882Z,20.94
